createdAt,value
2022-11-26T00:01:40.588Z,56.36
2022-11-26T00:04:07.293Z,56.21
2022-11-26T00:06:36.973Z,56.08
2022-11-26T00:09:13.330Z,55.22
2022-11-26T00:11:40.375Z,55.42
2022-11-26T00:14:14.156Z,54.90
2022-11-26T00:16:41.139Z,54.39
2022-11-26T00:19:07.823Z,55.14
2022-11-26T00:21:37.392Z,54.79
2022-11-26T00:24:04.647Z,55.12
2022-11-26T00:26:32.343Z,54.86
2022-11-26T00:29:00.733Z,54.79
2022-11-26T00:31:27.824Z,55.15
2022-11-26T00:33:54.708Z,54.19
2022-11-26T00:36:27.934Z,54.05
2022-11-26T00:39:02.416Z,54.28
2022-11-26T00:41:38.720Z,54.83
2022-11-26T00:44:18.863Z,55.72
2022-11-26T00:46:45.697Z,56.74
2022-11-26T00:49:12.288Z,56.28
2022-11-26T00:51:39.874Z,55.54
2022-11-26T00:54:09.920Z,56.00
2022-11-26T00:56:40.075Z,56.08
2022-11-26T00:59:06.744Z,55.72
2022-11-26T01:01:33.484Z,56.17
2022-11-26T01:04:00.261Z,56.54
2022-11-26T01:06:34.170Z,56.61
2022-11-26T01:09:01.989Z,55.93
2022-11-26T01:11:28.615Z,56.78
2022-11-26T01:13:55.514Z,56.92
2022-11-26T01:16:25.116Z,56.39
2022-11-26T01:18:54.919Z,56.89
2022-11-26T01:21:25.802Z,56.09
2022-11-26T01:23:52.899Z,57.90
2022-11-26T01:26:23.673Z,57.53
2022-11-26T01:28:50.823Z,56.94
2022-11-26T01:31:20.697Z,57.06
2022-11-26T01:33:47.990Z,58.88
2022-11-26T01:36:34.598Z,58.45
2022-11-26T01:39:22.802Z,58.43
2022-11-26T01:41:57.089Z,59.08
2022-11-26T01:44:30.202Z,58.37
2022-11-26T01:46:57.209Z,57.52
2022-11-26T01:49:23.843Z,59.02
2022-11-26T01:52:17.384Z,58.40
2022-11-26T01:54:45.814Z,57.60
2022-11-26T01:57:33.993Z,57.06
2022-11-26T02:00:02.886Z,56.62
2022-11-26T02:02:30.217Z,55.94
2022-11-26T02:05:07.633Z,56.86
2022-11-26T02:07:35.596Z,57.67
2022-11-26T02:10:03.017Z,57.40
2022-11-26T02:12:29.762Z,55.87
2022-11-26T02:14:56.712Z,55.44
2022-11-26T02:17:35.422Z,56.59
2022-11-26T02:20:24.423Z,56.02
2022-11-26T02:23:21.847Z,57.11
2022-11-26T02:26:36.263Z,57.07
2022-11-26T02:29:31.218Z,55.91
2022-11-26T02:32:08.751Z,55.49
2022-11-26T02:34:48.050Z,56.04
2022-11-26T02:37:23.050Z,56.31
2022-11-26T02:39:51.147Z,56.20
2022-11-26T02:42:27.576Z,56.62
2022-11-26T02:44:57.614Z,56.76
2022-11-26T02:47:27.016Z,56.96
2022-11-26T02:49:56.005Z,57.42
2022-11-26T02:52:25.175Z,58.21
2022-11-26T02:54:53.054Z,57.49
2022-11-26T02:57:24.373Z,57.82
2022-11-26T02:59:51.187Z,58.62
2022-11-26T03:02:25.708Z,57.96
2022-11-26T03:04:56.816Z,58.18
2022-11-26T03:07:23.829Z,58.11
2022-11-26T03:09:54.466Z,58.21
2022-11-26T03:12:21.842Z,58.17
2022-11-26T03:14:48.483Z,58.11
2022-11-26T03:17:15.882Z,57.25
2022-11-26T03:19:42.529Z,57.06
2022-11-26T03:22:09.343Z,58.33
2022-11-26T03:24:36.122Z,57.73
2022-11-26T03:27:02.930Z,57.34
2022-11-26T03:29:29.964Z,58.20
2022-11-26T03:31:56.727Z,57.81
2022-11-26T03:34:23.439Z,57.66
2022-11-26T03:36:50.288Z,57.46
2022-11-26T03:39:17.115Z,57.66
2022-11-26T03:41:44.367Z,57.49
2022-11-26T03:44:11.958Z,58.07
2022-11-26T03:46:39.006Z,58.27
2022-11-26T03:49:06.058Z,57.74
2022-11-26T03:51:32.894Z,57.47
2022-11-26T03:53:59.628Z,57.59
2022-11-26T03:56:26.261Z,57.38
2022-11-26T03:58:52.907Z,56.98
2022-11-26T04:01:19.750Z,56.33
2022-11-26T04:03:46.476Z,55.58
2022-11-26T04:06:15.204Z,56.16
2022-11-26T04:08:41.809Z,56.72
2022-11-26T04:11:08.456Z,57.37
2022-11-26T04:13:35.348Z,55.92
2022-11-26T04:16:02.028Z,56.57
2022-11-26T04:18:28.753Z,56.94
2022-11-26T04:20:55.499Z,57.09
2022-11-26T04:23:22.177Z,57.65
2022-11-26T04:25:48.811Z,57.54
2022-11-26T04:28:15.379Z,56.66
2022-11-26T04:30:43.261Z,56.16
2022-11-26T04:33:10.148Z,56.46
2022-11-26T04:35:37.747Z,56.82
2022-11-26T04:38:04.437Z,56.74
2022-11-26T04:40:31.037Z,56.64
2022-11-26T04:42:57.676Z,57.28
2022-11-26T04:45:24.428Z,57.91
2022-11-26T04:47:51.161Z,58.02
2022-11-26T04:50:17.935Z,60.07
2022-11-26T04:52:44.573Z,58.70
2022-11-26T04:55:11.174Z,58.47
2022-11-26T04:57:37.770Z,58.20
2022-11-26T05:00:06.422Z,57.39
2022-11-26T05:02:33.518Z,58.28
2022-11-26T05:05:00.231Z,61.54
2022-11-26T05:07:26.931Z,63.39
2022-11-26T05:09:53.517Z,65.11
2022-11-26T05:12:20.171Z,63.25
2022-11-26T05:14:46.786Z,61.68
2022-11-26T05:17:13.516Z,60.44
2022-11-26T05:19:40.161Z,59.20
2022-11-26T05:22:06.809Z,58.91
2022-11-26T05:24:33.439Z,59.87
2022-11-26T05:27:00.101Z,61.79
2022-11-26T05:29:26.881Z,62.09
2022-11-26T05:31:53.568Z,60.49
2022-11-26T05:34:21.080Z,60.36
2022-11-26T05:36:47.674Z,60.95
2022-11-26T05:39:14.257Z,62.73
2022-11-26T05:41:40.900Z,61.44
2022-11-26T05:44:07.477Z,62.02
2022-11-26T05:46:35.786Z,61.71
2022-11-26T05:49:02.424Z,60.94
2022-11-26T05:51:29.070Z,60.50
2022-11-26T05:53:55.641Z,60.66
2022-11-26T05:56:22.333Z,61.74
2022-11-26T05:58:48.971Z,62.16
2022-11-26T06:01:15.777Z,63.30
2022-11-26T06:03:42.814Z,63.12
2022-11-26T06:06:09.826Z,62.69
2022-11-26T06:08:36.954Z,63.26
2022-11-26T06:11:03.587Z,64.80
2022-11-26T06:13:30.211Z,63.45
2022-11-26T06:15:56.857Z,63.50
2022-11-26T06:18:23.634Z,66.29
2022-11-26T06:20:50.257Z,65.31
2022-11-26T06:23:16.885Z,64.29
2022-11-26T06:25:43.544Z,62.95
2022-11-26T06:28:10.586Z,62.96
2022-11-26T06:30:37.201Z,62.77
2022-11-26T06:33:03.840Z,62.45
2022-11-26T06:35:30.519Z,62.27
2022-11-26T06:37:57.141Z,62.00
2022-11-26T06:40:23.793Z,61.41
2022-11-26T06:42:51.929Z,62.17
2022-11-26T06:45:19.423Z,61.69
2022-11-26T06:47:47.778Z,63.09
2022-11-26T06:50:15.787Z,62.78
2022-11-26T06:52:42.626Z,62.20
2022-11-26T06:55:09.561Z,62.11
2022-11-26T06:57:36.483Z,61.01
2022-11-26T07:00:05.146Z,61.63
2022-11-26T07:02:32.081Z,61.61
2022-11-26T07:04:58.806Z,61.41
2022-11-26T07:07:25.500Z,62.99
2022-11-26T07:09:52.156Z,62.84
2022-11-26T07:12:18.854Z,62.56
2022-11-26T07:14:45.478Z,62.38
2022-11-26T07:17:12.136Z,62.16
2022-11-26T07:19:38.705Z,62.09
2022-11-26T07:22:05.292Z,62.38
2022-11-26T07:24:31.916Z,63.33
2022-11-26T07:26:58.605Z,63.52
2022-11-26T07:29:25.295Z,62.69
2022-11-26T07:31:51.972Z,63.29
2022-11-26T07:34:18.703Z,63.28
2022-11-26T07:36:45.375Z,63.94
2022-11-26T07:39:12.237Z,63.27
2022-11-26T07:41:38.940Z,62.70
2022-11-26T07:44:05.549Z,62.67
2022-11-26T07:46:32.255Z,62.63
2022-11-26T07:48:58.928Z,62.08
2022-11-26T07:51:28.856Z,62.19
2022-11-26T07:53:59.590Z,62.75
2022-11-26T07:56:27.205Z,62.93
2022-11-26T07:58:54.065Z,61.90
2022-11-26T08:01:23.779Z,64.97
2022-11-26T08:03:51.508Z,61.32
2022-11-26T08:06:21.338Z,61.04
2022-11-26T08:08:48.529Z,60.51
2022-11-26T08:11:17.741Z,60.03
2022-11-26T08:13:44.727Z,61.80
2022-11-26T08:16:12.049Z,62.15
2022-11-26T08:18:39.027Z,61.37
2022-11-26T08:21:06.288Z,61.56
2022-11-26T08:23:34.291Z,60.94
2022-11-26T08:26:24.239Z,61.21
2022-11-26T08:28:54.583Z,61.37
2022-11-26T08:31:21.531Z,60.41
2022-11-26T08:33:48.281Z,60.11
2022-11-26T08:36:14.916Z,60.40
2022-11-26T08:38:41.748Z,59.19
2022-11-26T08:41:11.112Z,59.51
2022-11-26T08:44:05.810Z,60.78
2022-11-26T08:46:26.090Z,62.68
2022-11-26T08:48:55.747Z,67.66
2022-11-26T08:51:23.343Z,66.01
2022-11-26T08:53:50.056Z,63.66
2022-11-26T08:56:16.700Z,65.38
2022-11-26T08:58:48.926Z,59.01
2022-11-26T09:01:20.134Z,59.47
2022-11-26T09:03:51.467Z,60.52
2022-11-26T09:06:19.276Z,59.82
2022-11-26T09:09:04.636Z,60.71
2022-11-26T09:11:32.449Z,61.91
2022-11-26T09:13:59.512Z,59.85
2022-11-26T09:16:26.371Z,60.73
2022-11-26T09:18:53.522Z,59.91
2022-11-26T09:21:22.552Z,61.28
2022-11-26T09:23:49.189Z,63.27
2022-11-26T09:26:15.837Z,64.11
2022-11-26T09:28:42.452Z,60.16
2022-11-26T09:31:09.177Z,60.54
2022-11-26T09:33:35.827Z,59.36
2022-11-26T09:36:08.375Z,57.92
2022-11-26T09:38:36.352Z,58.77
2022-11-26T09:41:15.103Z,59.04
2022-11-26T09:44:12.376Z,57.91
2022-11-26T09:47:12.398Z,58.49
2022-11-26T09:49:58.459Z,58.41
2022-11-26T09:52:30.487Z,57.64
2022-11-26T09:55:10.852Z,58.61
2022-11-26T09:57:44.348Z,58.26
2022-11-26T10:00:20.745Z,58.82
2022-11-26T10:02:47.432Z,58.93
2022-11-26T10:05:18.485Z,58.36
2022-11-26T10:08:16.326Z,58.42
2022-11-26T10:11:05.646Z,56.54
2022-11-26T10:13:45.752Z,55.99
2022-11-26T10:16:29.686Z,55.98
2022-11-26T10:19:08.783Z,55.20
2022-11-26T10:21:58.656Z,56.12
2022-11-26T10:24:40.947Z,55.87
2022-11-26T10:27:18.287Z,55.90
2022-11-26T10:29:54.961Z,55.48
2022-11-26T10:32:35.222Z,54.46
2022-11-26T10:35:02.398Z,54.79
2022-11-26T10:37:29.862Z,56.04
2022-11-26T10:40:18.442Z,54.48
2022-11-26T10:43:05.751Z,54.55
2022-11-26T10:45:43.811Z,55.26
2022-11-26T10:48:35.127Z,52.99
2022-11-26T10:51:06.441Z,52.66
2022-11-26T10:53:54.639Z,52.18
2022-11-26T10:56:29.179Z,51.57
2022-11-26T10:59:02.612Z,51.13
2022-11-26T11:01:39.856Z,53.44
2022-11-26T11:04:24.408Z,54.86
2022-11-26T11:06:51.314Z,54.83
2022-11-26T11:09:38.645Z,55.11
2022-11-26T11:12:20.964Z,53.87
2022-11-26T11:14:49.731Z,54.12
2022-11-26T11:17:36.671Z,54.11
2022-11-26T11:20:22.128Z,53.26
2022-11-26T11:22:58.130Z,53.81
2022-11-26T11:25:28.497Z,53.26
2022-11-26T11:28:02.285Z,54.92
2022-11-26T11:30:32.884Z,53.72
2022-11-26T11:33:11.986Z,54.25
2022-11-26T11:35:39.279Z,54.48
2022-11-26T11:38:21.924Z,54.19
2022-11-26T11:40:49.328Z,54.51
2022-11-26T11:43:18.080Z,57.85
2022-11-26T11:45:55.750Z,52.63
2022-11-26T11:48:25.303Z,54.43
2022-11-26T11:51:12.020Z,54.43
2022-11-26T11:53:51.562Z,56.38
2022-11-26T11:56:25.262Z,55.34
2022-11-26T11:59:05.646Z,51.74
2022-11-26T12:02:32.202Z,52.55
2022-11-26T12:05:32.972Z,57.85
2022-11-26T12:08:36.178Z,56.98
2022-11-26T12:11:18.149Z,56.16
2022-11-26T12:13:53.847Z,56.30
2022-11-26T12:16:24.747Z,53.07
2022-11-26T12:19:00.918Z,55.83
2022-11-26T12:22:04.407Z,51.66
2022-11-26T12:24:43.480Z,53.98
2022-11-26T12:27:38.266Z,53.31
2022-11-26T12:30:15.221Z,52.24
2022-11-26T12:33:13.432Z,52.25
2022-11-26T12:35:45.583Z,52.81
2022-11-26T12:38:19.557Z,53.34
2022-11-26T12:40:51.427Z,51.55
2022-11-26T12:43:25.854Z,55.44
2022-11-26T12:45:58.687Z,53.25
2022-11-26T12:48:33.417Z,50.30
2022-11-26T12:51:26.580Z,54.34
2022-11-26T12:54:17.216Z,53.13
2022-11-26T12:57:23.144Z,56.18
2022-11-26T12:59:58.528Z,51.83
2022-11-26T13:02:31.003Z,53.47
2022-11-26T13:05:02.007Z,50.98
2022-11-26T13:07:53.547Z,50.72
2022-11-26T13:10:44.111Z,56.12
2022-11-26T13:13:25.289Z,54.80
2022-11-26T13:16:04.113Z,50.68
2022-11-26T13:18:47.582Z,50.35
2022-11-26T13:21:37.383Z,50.02
2022-11-26T13:24:13.533Z,52.03
2022-11-26T13:27:01.441Z,51.69
2022-11-26T13:29:44.591Z,50.67
2022-11-26T13:32:44.263Z,50.69
2022-11-26T13:35:16.590Z,50.39
2022-11-26T13:38:09.088Z,50.31
2022-11-26T13:41:03.527Z,50.03
2022-11-26T13:43:54.826Z,50.11
2022-11-26T13:46:25.080Z,49.73
2022-11-26T13:48:54.466Z,49.29
2022-11-26T13:51:25.293Z,50.13
2022-11-26T13:54:01.463Z,50.63
2022-11-26T13:56:32.432Z,50.95
2022-11-26T13:59:08.735Z,51.04
2022-11-26T14:01:40.662Z,51.46
2022-11-26T14:04:13.700Z,51.79
2022-11-26T14:07:06.130Z,51.74
2022-11-26T14:09:52.556Z,51.80
2022-11-26T14:12:27.849Z,52.30
2022-11-26T14:14:54.522Z,51.90
2022-11-26T14:17:23.688Z,51.57
2022-11-26T14:19:52.093Z,51.61
2022-11-26T14:22:21.857Z,51.89
2022-11-26T14:24:51.318Z,51.86
2022-11-26T14:27:21.795Z,51.64
2022-11-26T14:30:00.105Z,51.45
2022-11-26T14:32:32.919Z,51.57
2022-11-26T14:35:00.027Z,51.26
2022-11-26T14:37:30.209Z,51.36
2022-11-26T14:40:19.202Z,51.28
2022-11-26T14:42:45.976Z,51.42
2022-11-26T14:45:18.589Z,56.80
2022-11-26T14:47:49.158Z,53.20
2022-11-26T14:50:19.407Z,52.20
2022-11-26T14:52:46.833Z,52.32
2022-11-26T14:55:24.100Z,51.61
2022-11-26T14:57:56.273Z,51.51
2022-11-26T15:00:27.438Z,51.25
2022-11-26T15:02:54.763Z,52.04
2022-11-26T15:05:24.072Z,51.89
2022-11-26T15:08:02.260Z,52.04
2022-11-26T15:10:40.744Z,52.64
2022-11-26T15:13:14.298Z,52.16
2022-11-26T15:15:52.415Z,52.36
2022-11-26T15:18:21.971Z,52.05
2022-11-26T15:20:52.964Z,52.47
2022-11-26T15:23:27.995Z,52.68
2022-11-26T15:25:55.428Z,52.93
2022-11-26T15:28:23.177Z,52.67
2022-11-26T15:30:59.038Z,52.63
2022-11-26T15:33:27.574Z,52.72
2022-11-26T15:35:57.785Z,53.20
2022-11-26T15:38:26.959Z,53.01
2022-11-26T15:41:21.551Z,53.76
2022-11-26T15:43:52.922Z,54.00
2022-11-26T15:46:25.693Z,53.87
2022-11-26T15:49:03.838Z,53.43
2022-11-26T15:51:37.055Z,53.21
2022-11-26T15:54:23.112Z,53.11
2022-11-26T15:57:08.134Z,53.31
2022-11-26T15:59:52.124Z,53.39
2022-11-26T16:02:22.697Z,52.98
2022-11-26T16:04:54.785Z,52.93
2022-11-26T16:07:23.812Z,53.59
2022-11-26T16:10:08.668Z,53.11
2022-11-26T16:12:36.284Z,53.32
2022-11-26T16:15:31.355Z,59.55
2022-11-26T16:17:58.009Z,55.29
2022-11-26T16:20:28.119Z,54.18
2022-11-26T16:22:58.932Z,54.05
2022-11-26T16:25:33.132Z,53.14
2022-11-26T16:28:05.741Z,53.40
2022-11-26T16:30:33.626Z,53.61
2022-11-26T16:33:00.339Z,53.46
2022-11-26T16:35:45.085Z,53.74
2022-11-26T16:38:21.462Z,53.92
2022-11-26T16:40:48.813Z,54.82
2022-11-26T16:43:15.543Z,55.05
2022-11-26T16:45:42.336Z,54.21
2022-11-26T16:48:25.483Z,54.23
2022-11-26T16:50:54.123Z,54.22
2022-11-26T16:53:21.126Z,55.10
2022-11-26T16:55:49.937Z,55.44
2022-11-26T16:58:26.990Z,54.63
2022-11-26T17:00:55.218Z,54.43
2022-11-26T17:03:25.126Z,54.22
2022-11-26T17:05:56.691Z,54.24
2022-11-26T17:08:23.482Z,54.21
2022-11-26T17:10:51.283Z,54.21
2022-11-26T17:13:18.721Z,54.44
2022-11-26T17:15:45.597Z,55.97
2022-11-26T17:18:22.615Z,55.17
2022-11-26T17:20:50.627Z,55.13
2022-11-26T17:23:17.535Z,55.95
2022-11-26T17:25:52.062Z,56.07
2022-11-26T17:28:21.075Z,56.33
2022-11-26T17:30:47.897Z,56.05
2022-11-26T17:33:14.687Z,55.96
2022-11-26T17:35:41.385Z,55.96
2022-11-26T17:38:16.735Z,57.31
2022-11-26T17:40:44.380Z,57.86
2022-11-26T17:43:11.276Z,58.03
2022-11-26T17:45:38.777Z,58.28
2022-11-26T17:48:05.971Z,57.59
2022-11-26T17:50:33.467Z,56.99
2022-11-26T17:53:00.241Z,56.71
2022-11-26T17:55:27.133Z,56.47
2022-11-26T17:57:55.427Z,56.96
2022-11-26T18:00:26.288Z,57.05
2022-11-26T18:02:52.915Z,56.58
2022-11-26T18:05:19.903Z,56.33
2022-11-26T18:07:46.612Z,57.29
2022-11-26T18:10:16.440Z,56.28
2022-11-26T18:12:44.010Z,57.65
2022-11-26T18:15:19.724Z,57.23
2022-11-26T18:17:51.202Z,58.54
2022-11-26T18:20:21.405Z,57.87
2022-11-26T18:22:57.663Z,57.58
2022-11-26T18:25:24.307Z,57.56
2022-11-26T18:27:52.038Z,57.58
2022-11-26T18:30:19.762Z,57.13
2022-11-26T18:32:47.079Z,57.53
2022-11-26T18:35:13.990Z,57.26
2022-11-26T18:37:41.110Z,57.28
2022-11-26T18:40:11.136Z,57.70
2022-11-26T18:42:39.214Z,57.99
2022-11-26T18:45:10.844Z,57.53
2022-11-26T18:47:38.322Z,57.40
2022-11-26T18:50:06.182Z,56.69
2022-11-26T18:52:32.868Z,57.65
2022-11-26T18:55:00.076Z,57.34
2022-11-26T18:57:26.790Z,57.44
2022-11-26T18:59:53.349Z,57.53
2022-11-26T19:02:20.013Z,57.37
2022-11-26T19:04:46.696Z,57.56
2022-11-26T19:07:14.289Z,57.07
2022-11-26T19:09:41.864Z,57.45
2022-11-26T19:12:08.999Z,57.16
2022-11-26T19:14:35.972Z,57.36
2022-11-26T19:17:02.852Z,56.97
2022-11-26T19:19:29.544Z,57.49
2022-11-26T19:22:00.965Z,57.32
2022-11-26T19:24:28.745Z,57.84
2022-11-26T19:26:55.350Z,57.68
2022-11-26T19:29:22.084Z,57.76
2022-11-26T19:31:49.017Z,57.13
2022-11-26T19:34:16.147Z,57.64
2022-11-26T19:36:48.237Z,57.28
2022-11-26T19:39:16.203Z,57.69
2022-11-26T19:41:43.511Z,57.95
2022-11-26T19:44:10.275Z,57.53
2022-11-26T19:46:40.822Z,58.75
2022-11-26T19:49:11.122Z,58.21
2022-11-26T19:51:37.817Z,57.90
2022-11-26T19:54:05.019Z,59.32
2022-11-26T19:56:36.475Z,59.25
2022-11-26T19:59:03.963Z,59.16
2022-11-26T20:01:32.857Z,59.04
2022-11-26T20:04:02.078Z,58.48
2022-11-26T20:06:30.926Z,58.23
2022-11-26T20:09:01.097Z,58.24
2022-11-26T20:11:39.109Z,58.16
2022-11-26T20:14:10.541Z,58.12
2022-11-26T20:16:39.268Z,57.98
2022-11-26T20:19:06.124Z,58.12
2022-11-26T20:21:33.736Z,58.21
2022-11-26T20:24:04.658Z,57.82
2022-11-26T20:26:34.293Z,57.78
2022-11-26T20:29:04.555Z,57.90
2022-11-26T20:31:31.871Z,57.82
2022-11-26T20:34:02.178Z,57.70
2022-11-26T20:36:29.134Z,58.51
2022-11-26T20:38:59.713Z,58.20
2022-11-26T20:41:28.071Z,58.57
2022-11-26T20:43:58.986Z,57.87
2022-11-26T20:46:26.511Z,58.30
2022-11-26T20:48:53.253Z,57.81
2022-11-26T20:51:22.112Z,58.54
2022-11-26T20:53:50.609Z,58.45
2022-11-26T20:56:19.214Z,59.02
2022-11-26T20:58:46.191Z,58.20
2022-11-26T21:01:23.925Z,58.40
2022-11-26T21:03:52.059Z,58.60
2022-11-26T21:06:27.605Z,58.64
2022-11-26T21:09:00.200Z,59.64
2022-11-26T21:11:27.210Z,58.92
2022-11-26T21:13:53.864Z,58.55
2022-11-26T21:16:20.511Z,58.63
2022-11-26T21:18:47.205Z,58.79
2022-11-26T21:21:16.022Z,58.24
2022-11-26T21:23:44.102Z,58.93
2022-11-26T21:26:22.387Z,58.50
2022-11-26T21:28:54.108Z,58.49
2022-11-26T21:31:21.528Z,58.68
2022-11-26T21:33:54.690Z,58.49
2022-11-26T21:36:22.942Z,58.80
2022-11-26T21:38:49.810Z,58.52
2022-11-26T21:41:19.100Z,58.23
2022-11-26T21:43:46.708Z,58.38
2022-11-26T21:46:16.206Z,58.62
2022-11-26T21:48:43.362Z,58.74
2022-11-26T21:51:17.711Z,58.43
2022-11-26T21:53:44.660Z,58.79
2022-11-26T21:56:17.273Z,58.12
2022-11-26T21:58:44.240Z,58.48
2022-11-26T22:01:16.725Z,58.35
2022-11-26T22:03:45.382Z,58.44
2022-11-26T22:06:13.044Z,58.97
2022-11-26T22:08:40.823Z,58.79
2022-11-26T22:11:12.174Z,58.66
2022-11-26T22:13:39.936Z,58.69
2022-11-26T22:16:07.446Z,58.83
2022-11-26T22:18:41.675Z,58.18
2022-11-26T22:21:14.848Z,58.44
2022-11-26T22:23:41.777Z,58.83
2022-11-26T22:26:09.065Z,58.19
2022-11-26T22:28:36.138Z,58.31
2022-11-26T22:31:23.976Z,57.93
2022-11-26T22:33:54.748Z,58.09
2022-11-26T22:36:24.148Z,58.47
2022-11-26T22:38:50.943Z,58.70
2022-11-26T22:41:17.700Z,59.06
2022-11-26T22:43:44.598Z,59.67
2022-11-26T22:46:13.938Z,59.36
2022-11-26T22:48:42.470Z,60.63
2022-11-26T22:51:10.028Z,60.20
2022-11-26T22:53:37.025Z,60.25
2022-11-26T22:56:04.626Z,60.30
2022-11-26T22:58:33.543Z,60.09
2022-11-26T23:01:09.545Z,60.42
2022-11-26T23:03:38.015Z,61.31
2022-11-26T23:06:09.558Z,60.29
2022-11-26T23:08:37.459Z,60.55
2022-11-26T23:11:17.760Z,60.30
2022-11-26T23:13:45.849Z,59.90
2022-11-26T23:16:12.714Z,59.74
2022-11-26T23:18:39.849Z,60.57
2022-11-26T23:21:15.692Z,60.45
2022-11-26T23:23:43.017Z,61.03
2022-11-26T23:26:13.518Z,60.78
2022-11-26T23:28:40.298Z,60.42
2022-11-26T23:31:10.990Z,60.50
2022-11-26T23:33:37.618Z,61.19
2022-11-26T23:36:04.659Z,60.71
2022-11-26T23:38:31.261Z,61.24
2022-11-26T23:41:00.358Z,60.54
2022-11-26T23:43:27.383Z,61.07
2022-11-26T23:46:02.242Z,60.53
2022-11-26T23:48:29.266Z,62.96
2022-11-26T23:50:56.378Z,64.62
2022-11-26T23:53:23.065Z,62.82
2022-11-26T23:55:49.705Z,62.02
2022-11-26T23:58:17.284Z,61.84
